createdAt,value
2023-05-26T00:00:53.878Z,17.23
2023-05-26T00:03:29.067Z,17.60
2023-05-26T00:06:01.809Z,19.25
2023-05-26T00:08:33.969Z,18.42
2023-05-26T00:11:06.965Z,18.67
2023-05-26T00:13:39.098Z,18.90
2023-05-26T00:16:11.322Z,16.95
2023-05-26T00:18:43.504Z,17.35
2023-05-26T00:21:15.695Z,17.17
2023-05-26T00:23:48.347Z,17.53
2023-05-26T00:26:20.543Z,16.90
2023-05-26T00:28:56.926Z,17.77
2023-05-26T00:31:31.084Z,16.42
2023-05-26T00:34:03.414Z,16.35
2023-05-26T00:36:36.724Z,16.83
2023-05-26T00:39:09.686Z,17.05
2023-05-26T00:41:42.576Z,17.80
2023-05-26T00:44:14.829Z,16.95
2023-05-26T00:46:47.646Z,16.50
2023-05-26T00:49:20.492Z,16.23
2023-05-26T00:51:53.276Z,17.02
2023-05-26T00:54:25.536Z,17.13
2023-05-26T00:56:59.472Z,19.42
2023-05-26T00:59:32.403Z,16.10
2023-05-26T01:02:05.429Z,18.88
2023-05-26T01:04:41.590Z,16.23
2023-05-26T01:07:14.379Z,15.88
2023-05-26T01:09:51.034Z,17.00
2023-05-26T01:12:36.312Z,18.55
2023-05-26T01:15:14.309Z,16.73
2023-05-26T01:18:04.621Z,17.23
2023-05-26T01:20:47.324Z,17.25
2023-05-26T01:23:34.474Z,16.60
2023-05-26T01:26:33.186Z,17.60
2023-05-26T01:29:12.607Z,16.23
2023-05-26T01:31:45.126Z,18.83
2023-05-26T01:34:17.254Z,16.55
2023-05-26T01:36:49.370Z,15.05
2023-05-26T01:39:21.559Z,17.48
2023-05-26T01:42:06.961Z,16.88
2023-05-26T01:44:46.275Z,16.20
2023-05-26T01:47:19.818Z,16.88
2023-05-26T01:52:26.123Z,15.95
2023-05-26T01:55:04.866Z,17.17
2023-05-26T01:57:37.938Z,17.17
2023-05-26T02:00:16.993Z,16.85
2023-05-26T02:02:49.205Z,16.45
2023-05-26T02:05:21.450Z,16.83
2023-05-26T02:07:54.124Z,16.20
2023-05-26T02:10:26.308Z,17.98
2023-05-26T02:12:58.584Z,18.23
2023-05-26T02:15:30.872Z,16.13
2023-05-26T02:18:04.579Z,16.50
2023-05-26T02:20:37.122Z,15.13
2023-05-26T02:23:09.361Z,15.43
2023-05-26T02:28:15.046Z,16.20
2023-05-26T02:30:47.336Z,16.17
2023-05-26T02:33:19.510Z,16.30
2023-05-26T02:35:51.837Z,17.17
2023-05-26T02:38:24.314Z,16.38
2023-05-26T02:40:56.934Z,17.15
2023-05-26T02:43:29.137Z,15.82
2023-05-26T02:46:02.130Z,15.40
2023-05-26T02:51:08.356Z,16.02
2023-05-26T02:53:41.436Z,15.38
2023-05-26T02:56:13.586Z,14.82
2023-05-26T02:58:45.965Z,14.63
2023-05-26T03:01:18.196Z,14.82
2023-05-26T03:03:50.771Z,14.45
2023-05-26T03:06:23.754Z,15.07
2023-05-26T03:11:29.312Z,16.90
2023-05-26T03:14:01.666Z,15.07
2023-05-26T03:16:35.331Z,15.02
2023-05-26T03:19:08.515Z,15.73
2023-05-26T03:21:46.481Z,16.05
2023-05-26T03:24:22.614Z,17.38
2023-05-26T03:26:54.921Z,15.25
2023-05-26T03:29:30.529Z,14.10
2023-05-26T03:32:04.123Z,15.00
2023-05-26T03:34:40.504Z,15.55
2023-05-26T03:37:13.635Z,15.38
2023-05-26T03:39:46.152Z,14.20
2023-05-26T03:42:18.976Z,13.85
2023-05-26T03:44:51.731Z,14.43
2023-05-26T03:47:24.573Z,15.45
2023-05-26T03:52:31.956Z,16.45
2023-05-26T03:55:05.760Z,15.65
2023-05-26T03:57:39.997Z,15.82
2023-05-26T04:00:13.278Z,15.43
2023-05-26T04:02:51.433Z,14.50
2023-05-26T04:05:24.274Z,15.23
2023-05-26T04:07:58.325Z,15.70
2023-05-26T04:10:30.556Z,15.93
2023-05-26T04:13:03.861Z,14.18
2023-05-26T04:15:36.357Z,13.82
2023-05-26T04:18:08.613Z,15.68
2023-05-26T04:20:40.887Z,14.68
2023-05-26T04:23:13.259Z,14.63
2023-05-26T04:25:46.150Z,13.87
2023-05-26T04:28:26.719Z,15.70
2023-05-26T04:31:21.359Z,15.40
2023-05-26T04:34:11.873Z,14.23
2023-05-26T04:36:55.795Z,13.95
2023-05-26T04:39:29.705Z,16.67
2023-05-26T04:42:04.386Z,15.88
2023-05-26T04:44:39.070Z,15.55
2023-05-26T04:47:11.561Z,14.63
2023-05-26T04:49:45.062Z,14.48
2023-05-26T04:52:17.542Z,15.45
2023-05-26T04:54:49.854Z,15.80
2023-05-26T04:57:24.961Z,15.55
2023-05-26T05:00:00.674Z,16.00
2023-05-26T05:02:33.143Z,15.52
2023-05-26T05:05:31.660Z,16.95
2023-05-26T05:08:04.011Z,17.55
2023-05-26T05:10:36.265Z,17.67
2023-05-26T05:13:08.476Z,20.85
2023-05-26T05:15:40.787Z,19.02
2023-05-26T05:18:13.126Z,17.13
2023-05-26T05:20:46.290Z,16.75
2023-05-26T05:23:18.748Z,15.07
2023-05-26T05:25:51.461Z,15.87
2023-05-26T05:28:23.588Z,15.07
2023-05-26T05:31:10.320Z,14.90
2023-05-26T05:33:44.456Z,17.17
2023-05-26T05:36:17.876Z,15.77
2023-05-26T05:38:50.164Z,16.25
2023-05-26T05:41:22.893Z,15.53
2023-05-26T05:43:58.042Z,15.43
2023-05-26T05:46:32.276Z,15.23
2023-05-26T05:49:09.667Z,14.98
2023-05-26T05:51:55.263Z,16.23
2023-05-26T05:54:27.576Z,15.75
2023-05-26T05:57:01.776Z,16.73
2023-05-26T05:59:34.277Z,15.55
2023-05-26T06:02:07.170Z,16.05
2023-05-26T06:04:39.630Z,15.90
2023-05-26T06:07:12.097Z,16.42
2023-05-26T06:09:44.300Z,17.50
2023-05-26T06:12:16.534Z,16.65
2023-05-26T06:14:49.108Z,16.38
2023-05-26T06:17:21.901Z,16.20
2023-05-26T06:19:54.315Z,16.60
2023-05-26T06:22:26.689Z,17.13
2023-05-26T06:24:58.905Z,16.67
2023-05-26T06:27:31.724Z,16.93
2023-05-26T06:30:04.918Z,16.65
2023-05-26T06:32:38.301Z,16.33
2023-05-26T06:35:10.870Z,16.05
2023-05-26T06:37:43.188Z,15.38
2023-05-26T06:40:15.789Z,15.52
2023-05-26T06:42:48.135Z,14.40
2023-05-26T06:45:20.574Z,15.65
2023-05-26T06:47:54.499Z,16.02
2023-05-26T06:50:30.669Z,16.13
2023-05-26T06:53:05.145Z,14.52
2023-05-26T06:55:37.299Z,15.40
2023-05-26T06:58:09.531Z,15.10
2023-05-26T07:00:57.830Z,15.90
2023-05-26T07:03:31.961Z,15.18
2023-05-26T07:06:06.478Z,15.80
2023-05-26T07:08:42.335Z,14.93
2023-05-26T07:11:26.369Z,15.00
2023-05-26T07:14:05.460Z,15.55
2023-05-26T07:16:37.650Z,16.17
2023-05-26T07:19:10.590Z,15.13
2023-05-26T07:21:42.882Z,14.77
2023-05-26T07:24:15.550Z,15.80
2023-05-26T07:26:47.845Z,14.98
2023-05-26T07:29:20.372Z,14.55
2023-05-26T07:31:52.631Z,15.70
2023-05-26T07:34:25.137Z,14.77
2023-05-26T07:36:57.346Z,14.70
2023-05-26T07:39:29.491Z,15.48
2023-05-26T07:42:01.708Z,14.93
2023-05-26T07:44:33.872Z,14.63
2023-05-26T07:47:06.628Z,15.65
2023-05-26T07:49:38.802Z,15.33
2023-05-26T07:52:11.090Z,13.63
2023-05-26T07:54:43.278Z,13.60
2023-05-26T07:57:25.731Z,14.10
2023-05-26T08:00:01.610Z,15.63
2023-05-26T08:02:34.268Z,14.27
2023-05-26T08:05:07.335Z,15.20
2023-05-26T08:07:39.634Z,14.85
2023-05-26T08:10:12.628Z,14.20
2023-05-26T08:12:45.387Z,14.20
2023-05-26T08:15:20.618Z,16.25
2023-05-26T08:17:53.574Z,14.38
2023-05-26T08:20:25.919Z,13.38
2023-05-26T08:23:01.987Z,13.20
2023-05-26T08:25:34.189Z,14.95
2023-05-26T08:28:06.581Z,14.43
2023-05-26T08:30:38.868Z,15.05
2023-05-26T08:33:11.099Z,13.88
2023-05-26T08:35:43.377Z,14.15
2023-05-26T08:38:15.676Z,13.15
2023-05-26T08:40:51.881Z,12.63
2023-05-26T08:43:44.574Z,13.40
2023-05-26T08:46:19.958Z,12.82
2023-05-26T08:48:54.457Z,13.48
2023-05-26T08:51:28.294Z,12.68
2023-05-26T08:54:00.675Z,12.85
2023-05-26T08:56:33.821Z,13.70
2023-05-26T09:01:43.474Z,12.45
2023-05-26T09:04:15.896Z,11.10
2023-05-26T09:06:58.961Z,12.52
2023-05-26T09:09:41.368Z,12.50
2023-05-26T09:12:14.045Z,12.20
2023-05-26T09:14:46.437Z,10.33
2023-05-26T09:17:18.649Z,11.27
2023-05-26T09:19:51.012Z,9.23
2023-05-26T09:22:35.749Z,9.90
2023-05-26T09:25:08.194Z,9.65
2023-05-26T09:27:40.372Z,10.43
2023-05-26T09:30:12.772Z,10.90
2023-05-26T09:32:46.944Z,11.15
2023-05-26T09:35:19.291Z,10.70
2023-05-26T09:37:52.057Z,10.45
2023-05-26T09:40:26.098Z,11.93
2023-05-26T09:42:58.309Z,12.77
2023-05-26T09:45:37.759Z,10.57
2023-05-26T09:48:10.650Z,11.70
2023-05-26T09:50:42.891Z,11.73
2023-05-26T09:53:16.066Z,10.15
2023-05-26T09:55:51.323Z,10.68
2023-05-26T09:58:25.725Z,10.43
2023-05-26T10:00:59.743Z,10.18
2023-05-26T10:03:32.599Z,9.82
2023-05-26T10:06:06.044Z,11.00
2023-05-26T10:08:40.932Z,10.25
2023-05-26T10:11:14.918Z,11.35
2023-05-26T10:13:47.679Z,11.18
2023-05-26T10:16:19.969Z,9.75
2023-05-26T10:18:52.899Z,8.98
2023-05-26T10:21:30.377Z,8.82
2023-05-26T10:24:21.764Z,9.60
2023-05-26T10:26:56.365Z,12.40
2023-05-26T10:29:45.566Z,10.60
2023-05-26T10:32:54.432Z,10.20
2023-05-26T10:35:29.198Z,9.98
2023-05-26T10:38:04.120Z,9.35
2023-05-26T10:40:43.796Z,10.57
2023-05-26T10:43:21.464Z,10.20
2023-05-26T10:45:59.638Z,9.32
2023-05-26T10:48:55.467Z,10.13
2023-05-26T10:51:34.286Z,9.63
2023-05-26T10:54:22.749Z,8.98
2023-05-26T10:56:56.671Z,8.63
2023-05-26T10:59:37.950Z,9.10
2023-05-26T11:02:10.342Z,8.75
2023-05-26T11:04:47.518Z,9.40
2023-05-26T11:07:30.594Z,8.70
2023-05-26T11:10:07.573Z,9.60
2023-05-26T11:12:56.098Z,9.85
2023-05-26T11:15:36.423Z,9.43
2023-05-26T11:18:10.930Z,10.35
2023-05-26T11:20:44.297Z,9.85
2023-05-26T11:25:50.305Z,9.55
2023-05-26T11:28:23.083Z,9.10
2023-05-26T11:30:55.471Z,8.75
2023-05-26T11:33:27.800Z,9.20
2023-05-26T11:36:06.881Z,9.52
2023-05-26T11:38:40.815Z,9.57
2023-05-26T11:41:18.936Z,8.70
2023-05-26T11:43:51.212Z,9.07
2023-05-26T11:46:31.788Z,10.67
2023-05-26T11:49:04.574Z,9.45
2023-05-26T11:51:36.776Z,9.40
2023-05-26T11:54:15.002Z,9.57
2023-05-26T11:56:49.524Z,9.07
2023-05-26T11:59:22.952Z,8.82
2023-05-26T12:02:00.190Z,8.80
2023-05-26T12:04:32.622Z,9.63
2023-05-26T12:07:05.291Z,8.63
2023-05-26T12:09:37.642Z,8.55
2023-05-26T12:12:13.585Z,8.77
2023-05-26T12:14:46.802Z,9.13
2023-05-26T12:17:19.267Z,8.82
2023-05-26T12:19:51.582Z,8.77
2023-05-26T12:22:29.816Z,8.70
2023-05-26T12:25:02.238Z,8.05
2023-05-26T12:27:39.372Z,8.70
2023-05-26T12:30:26.245Z,8.43
2023-05-26T12:33:02.744Z,7.78
2023-05-26T12:35:34.969Z,8.15
2023-05-26T12:38:08.235Z,8.05
2023-05-26T12:40:40.401Z,8.43
2023-05-26T12:43:13.221Z,7.85
2023-05-26T12:45:45.656Z,8.05
2023-05-26T12:48:18.248Z,8.75
2023-05-26T12:50:50.492Z,8.50
2023-05-26T12:53:23.696Z,8.57
2023-05-26T12:55:57.573Z,8.82
2023-05-26T12:58:30.033Z,8.30
2023-05-26T13:01:02.813Z,8.63
2023-05-26T13:03:36.286Z,8.25
2023-05-26T13:06:10.902Z,8.10
2023-05-26T13:08:43.407Z,8.10
2023-05-26T13:11:16.336Z,7.63
2023-05-26T13:13:49.074Z,8.50
2023-05-26T13:16:25.840Z,8.75
2023-05-26T13:18:58.626Z,8.13
2023-05-26T13:21:31.968Z,7.90
2023-05-26T13:26:36.967Z,8.32
2023-05-26T13:29:10.752Z,8.27
2023-05-26T13:31:43.122Z,8.35
2023-05-26T13:34:15.859Z,8.73
2023-05-26T13:36:49.096Z,8.82
2023-05-26T13:39:21.937Z,8.40
2023-05-26T13:41:54.134Z,8.43
2023-05-26T13:44:26.313Z,7.97
2023-05-26T13:46:58.534Z,8.70
2023-05-26T13:49:31.337Z,8.40
2023-05-26T13:52:05.784Z,7.55
2023-05-26T13:54:38.224Z,7.40
2023-05-26T13:57:10.636Z,8.50
2023-05-26T13:59:43.094Z,7.72
2023-05-26T14:02:15.672Z,8.23
2023-05-26T14:04:48.241Z,7.50
2023-05-26T14:07:20.522Z,7.10
2023-05-26T14:09:52.806Z,7.28
2023-05-26T14:12:25.363Z,8.20
2023-05-26T14:14:57.934Z,8.10
2023-05-26T14:17:30.836Z,7.50
2023-05-26T14:20:08.297Z,7.55
2023-05-26T14:22:43.492Z,7.53
2023-05-26T14:25:16.769Z,7.78
2023-05-26T14:27:49.579Z,7.93
2023-05-26T14:30:23.384Z,8.10
2023-05-26T14:32:55.747Z,8.02
2023-05-26T14:35:27.989Z,7.18
2023-05-26T14:38:00.175Z,8.10
2023-05-26T14:40:33.735Z,8.05
2023-05-26T14:43:06.110Z,8.70
2023-05-26T14:45:38.473Z,7.57
2023-05-26T14:48:10.930Z,7.63
2023-05-26T14:50:43.911Z,8.10
2023-05-26T14:53:16.185Z,7.93
2023-05-26T14:55:48.863Z,8.20
2023-05-26T14:58:21.357Z,7.32
2023-05-26T15:00:56.654Z,7.53
2023-05-26T15:03:28.876Z,8.40
2023-05-26T15:06:04.876Z,8.47
2023-05-26T15:08:39.239Z,8.95
2023-05-26T15:11:13.630Z,8.02
2023-05-26T15:13:46.154Z,8.30
2023-05-26T15:16:18.926Z,8.27
2023-05-26T15:18:51.362Z,7.53
2023-05-26T15:21:37.147Z,8.35
2023-05-26T15:24:11.501Z,7.75
2023-05-26T15:26:44.249Z,8.00
2023-05-26T15:29:16.445Z,7.38
2023-05-26T15:31:48.608Z,7.60
2023-05-26T15:34:22.110Z,8.10
2023-05-26T15:36:54.787Z,7.78
2023-05-26T15:39:28.004Z,7.78
2023-05-26T15:42:01.021Z,7.30
2023-05-26T15:44:33.806Z,7.70
2023-05-26T15:47:06.436Z,8.10
2023-05-26T15:49:38.806Z,7.70
2023-05-26T15:52:10.941Z,7.55
2023-05-26T15:54:43.252Z,7.35
2023-05-26T15:57:21.896Z,7.70
2023-05-26T15:59:55.088Z,7.63
2023-05-26T16:02:27.343Z,7.50
2023-05-26T16:04:59.723Z,7.70
2023-05-26T16:07:31.876Z,6.90
2023-05-26T16:10:04.662Z,7.45
2023-05-26T16:12:37.011Z,8.07
2023-05-26T16:15:09.954Z,7.07
2023-05-26T16:17:42.736Z,7.20
2023-05-26T16:20:15.120Z,6.93
2023-05-26T16:22:50.631Z,7.47
2023-05-26T16:25:22.851Z,7.07
2023-05-26T16:27:55.134Z,7.80
2023-05-26T16:30:27.254Z,7.95
2023-05-26T16:32:59.426Z,7.63
2023-05-26T16:35:43.078Z,6.72
2023-05-26T16:38:15.887Z,7.68
2023-05-26T16:40:48.319Z,7.20
2023-05-26T16:43:31.931Z,6.93
2023-05-26T16:46:12.718Z,7.13
2023-05-26T16:48:45.557Z,7.78
2023-05-26T16:51:19.112Z,7.50
2023-05-26T16:53:52.999Z,7.65
2023-05-26T16:56:25.156Z,7.70
2023-05-26T16:58:57.590Z,7.00
2023-05-26T17:01:30.150Z,7.10
2023-05-26T17:04:02.657Z,7.40
2023-05-26T17:06:35.095Z,7.55
2023-05-26T17:09:08.454Z,7.50
2023-05-26T17:14:12.743Z,7.70
2023-05-26T17:16:45.283Z,7.45
2023-05-26T17:19:17.420Z,7.83
2023-05-26T17:21:49.533Z,7.60
2023-05-26T17:24:22.943Z,7.18
2023-05-26T17:29:29.261Z,7.70
2023-05-26T17:32:01.542Z,7.72
2023-05-26T17:34:33.758Z,6.63
2023-05-26T17:37:06.060Z,7.95
2023-05-26T17:39:38.389Z,7.93
2023-05-26T17:42:11.161Z,7.28
2023-05-26T17:44:43.682Z,7.25
2023-05-26T17:47:16.344Z,7.35
2023-05-26T17:49:48.609Z,7.80
2023-05-26T17:52:21.489Z,7.10
2023-05-26T17:54:53.719Z,7.80
2023-05-26T17:57:25.966Z,7.68
2023-05-26T17:59:58.142Z,7.32
2023-05-26T18:02:31.246Z,7.63
2023-05-26T18:05:04.364Z,7.43
2023-05-26T18:07:36.633Z,7.95
2023-05-26T18:10:09.463Z,7.18
2023-05-26T18:12:41.749Z,7.40
2023-05-26T18:15:15.284Z,7.27
2023-05-26T18:17:47.454Z,7.60
2023-05-26T18:20:22.060Z,7.33
2023-05-26T18:22:57.180Z,7.15
2023-05-26T18:25:33.356Z,7.22
2023-05-26T18:28:06.184Z,7.63
2023-05-26T18:30:38.560Z,7.55
2023-05-26T18:33:10.922Z,7.80
2023-05-26T18:35:43.277Z,7.50
2023-05-26T18:38:15.436Z,7.78
2023-05-26T18:40:47.751Z,7.53
2023-05-26T18:43:19.878Z,7.15
2023-05-26T18:45:52.005Z,7.78
2023-05-26T18:48:24.324Z,7.65
2023-05-26T18:50:58.217Z,7.30
2023-05-26T18:53:31.092Z,7.53
2023-05-26T18:56:05.677Z,7.53
2023-05-26T18:58:38.146Z,7.18
2023-05-26T19:01:10.382Z,7.15
2023-05-26T19:03:42.718Z,7.38
2023-05-26T19:06:14.974Z,7.80
2023-05-26T19:08:47.224Z,8.20
2023-05-26T19:11:19.442Z,7.82
2023-05-26T19:13:51.586Z,8.43
2023-05-26T19:16:23.813Z,7.80
2023-05-26T19:18:55.994Z,7.88
2023-05-26T19:21:30.706Z,8.05
2023-05-26T19:24:05.178Z,7.78
2023-05-26T19:26:37.455Z,7.90
2023-05-26T19:29:09.685Z,8.10
2023-05-26T19:31:42.155Z,8.20
2023-05-26T19:34:14.353Z,8.98
2023-05-26T19:36:46.537Z,8.55
2023-05-26T19:39:18.885Z,8.48
2023-05-26T19:41:51.116Z,7.90
2023-05-26T19:44:25.211Z,7.78
2023-05-26T19:46:58.855Z,9.13
2023-05-26T19:49:31.746Z,8.57
2023-05-26T19:52:03.941Z,7.93
2023-05-26T19:54:36.607Z,9.10
2023-05-26T19:57:08.829Z,9.07
2023-05-26T19:59:41.022Z,8.85
2023-05-26T20:02:16.080Z,9.07
2023-05-26T20:04:48.335Z,8.93
2023-05-26T20:07:20.626Z,8.80
2023-05-26T20:09:53.257Z,8.90
2023-05-26T20:12:25.888Z,9.00
2023-05-26T20:15:00.039Z,9.20
2023-05-26T20:17:32.589Z,9.73
2023-05-26T20:20:14.046Z,8.70
2023-05-26T20:22:46.830Z,9.98
2023-05-26T20:25:19.190Z,8.75
2023-05-26T20:27:52.204Z,9.40
2023-05-26T20:30:25.101Z,9.00
2023-05-26T20:32:57.949Z,9.13
2023-05-26T20:35:30.356Z,9.82
2023-05-26T20:38:02.915Z,9.50
2023-05-26T20:40:35.148Z,9.25
2023-05-26T20:43:07.279Z,9.85
2023-05-26T20:45:40.109Z,10.13
2023-05-26T20:48:12.889Z,9.48
2023-05-26T20:50:45.448Z,9.90
2023-05-26T20:53:18.136Z,9.98
2023-05-26T20:55:50.464Z,11.27
2023-05-26T20:58:22.601Z,10.43
2023-05-26T21:00:54.800Z,9.65
2023-05-26T21:03:27.088Z,10.68
2023-05-26T21:05:59.420Z,9.95
2023-05-26T21:08:31.752Z,9.15
2023-05-26T21:11:03.972Z,9.82
2023-05-26T21:13:36.134Z,10.50
2023-05-26T21:16:08.349Z,10.77
2023-05-26T21:18:41.050Z,10.55
2023-05-26T21:21:14.215Z,11.97
2023-05-26T21:23:46.385Z,11.00
2023-05-26T21:26:18.793Z,10.40
2023-05-26T21:28:51.204Z,10.50
2023-05-26T21:31:23.520Z,11.23
2023-05-26T21:33:55.676Z,10.52
2023-05-26T21:36:27.850Z,11.02
2023-05-26T21:39:00.752Z,11.23
2023-05-26T21:41:33.092Z,11.00
2023-05-26T21:44:05.526Z,10.10
2023-05-26T21:46:38.268Z,10.98
2023-05-26T21:49:10.570Z,11.02
2023-05-26T21:51:44.831Z,10.27
2023-05-26T21:54:17.266Z,11.25
2023-05-26T21:56:49.381Z,10.75
2023-05-26T21:59:21.525Z,11.57
2023-05-26T22:01:56.703Z,11.50
2023-05-26T22:04:29.545Z,11.77
2023-05-26T22:07:01.982Z,11.20
2023-05-26T22:09:34.413Z,11.25
2023-05-26T22:12:07.700Z,11.20
2023-05-26T22:14:40.101Z,12.27
2023-05-26T22:17:12.273Z,11.07
2023-05-26T22:19:44.576Z,11.65
2023-05-26T22:22:16.894Z,11.90
2023-05-26T22:24:49.060Z,12.30
2023-05-26T22:27:21.234Z,11.68
2023-05-26T22:29:53.352Z,11.30
2023-05-26T22:32:25.823Z,13.10
2023-05-26T22:34:59.003Z,11.13
2023-05-26T22:37:31.518Z,12.25
2023-05-26T22:40:04.575Z,12.00
2023-05-26T22:42:36.747Z,11.82
2023-05-26T22:45:09.479Z,11.82
2023-05-26T22:47:41.686Z,11.73
2023-05-26T22:50:14.171Z,11.93
2023-05-26T22:52:46.391Z,11.75
2023-05-26T22:55:21.402Z,11.93
2023-05-26T22:57:56.030Z,11.18
2023-05-26T23:00:29.301Z,11.13
2023-05-26T23:03:02.312Z,11.38
2023-05-26T23:05:35.190Z,11.43
2023-05-26T23:08:07.309Z,12.13
2023-05-26T23:10:39.438Z,12.98
2023-05-26T23:13:11.822Z,11.80
2023-05-26T23:15:44.621Z,10.75
2023-05-26T23:18:17.041Z,12.82
2023-05-26T23:20:49.906Z,11.75
2023-05-26T23:23:22.631Z,11.23
2023-05-26T23:25:55.035Z,11.60
2023-05-26T23:28:27.313Z,11.80
2023-05-26T23:30:59.469Z,11.80
2023-05-26T23:33:31.636Z,11.25
2023-05-26T23:36:04.386Z,11.10
2023-05-26T23:38:36.594Z,11.60
2023-05-26T23:41:08.728Z,11.52
2023-05-26T23:43:40.901Z,11.13
2023-05-26T23:46:13.108Z,12.13
2023-05-26T23:48:45.330Z,11.65
2023-05-26T23:51:17.626Z,12.38
2023-05-26T23:53:49.989Z,11.93
2023-05-26T23:56:22.255Z,13.73
2023-05-26T23:58:54.424Z,12.00
